Time;durP1;ratioP1;P1;durP2;ratioP2;P2;SDS_P1;SDS_P2;PMS_P1;PMS_P2;Temp;Humidity;BMP_temperature;BMP_pressure;BME280_temperature;BME280_humidity;BME280_pressure;Samples;Min_cycle;Max_cycle;Signal;HPM_P1;HPM_P2
2020/12/23 00:01:49;;;;;;;15.43;11.18;;;;;;;-2.79;74.29;101190.65;1798997;79;21061;-67
2020/12/23 00:04:18;;;;;;;15.80;9.98;;;;;;;-2.82;74.30;101196.69;1798776;79;21347;-68
2020/12/23 00:06:46;;;;;;;14.95;10.23;;;;;;;-2.82;74.25;101194.54;1798976;79;21120;-67
2020/12/23 00:09:15;;;;;;;18.62;12.35;;;;;;;-2.83;74.28;101202.73;1798958;79;21907;-67
2020/12/23 00:11:43;;;;;;;21.00;13.30;;;;;;;-2.84;74.38;101204.90;1791713;78;21060;-67
2020/12/23 00:14:11;;;;;;;21.12;13.40;;;;;;;-2.84;74.46;101191.12;1753113;81;21362;-68
2020/12/23 00:16:42;;;;;;;17.15;11.80;;;;;;;-2.85;74.47;101192.00;1797563;79;21473;-68
2020/12/23 00:19:10;;;;;;;23.62;15.53;;;;;;;-2.86;74.47;101191.14;1798945;79;21051;-67
2020/12/23 00:21:38;;;;;;;22.32;14.05;;;;;;;-2.85;74.55;101192.00;1798970;79;22067;-67
2020/12/23 00:24:07;;;;;;;20.12;14.00;;;;;;;-2.86;74.54;101180.80;1798854;79;21145;-67
2020/12/23 00:26:35;;;;;;;19.30;13.15;;;;;;;-2.86;74.54;101178.22;1798975;79;21534;-67
2020/12/23 00:29:04;;;;;;;21.17;14.28;;;;;;;-2.85;74.56;101176.48;1798956;79;21181;-66
2020/12/23 00:31:32;;;;;;;21.27;13.40;;;;;;;-2.85;74.58;101180.36;1798834;79;21043;-66
2020/12/23 00:34:01;;;;;;;24.80;15.05;;;;;;;-2.84;74.56;101176.47;1799034;79;23160;-66
2020/12/23 00:36:29;;;;;;;24.57;15.80;;;;;;;-2.85;74.47;101170.88;1799009;79;21086;-67
2020/12/23 00:38:58;;;;;;;22.67;15.08;;;;;;;-2.85;74.39;101176.48;1799074;79;21124;-66
2020/12/23 00:41:26;;;;;;;20.50;13.53;;;;;;;-2.87;74.28;101177.80;1765859;81;21465;-66
2020/12/23 00:43:54;;;;;;;25.02;15.32;;;;;;;-2.90;74.12;101181.25;1765758;81;21148;-66
2020/12/23 00:46:24;;;;;;;23.90;15.68;;;;;;;-2.90;74.20;101180.40;1765733;81;21085;-67
2020/12/23 00:48:52;;;;;;;26.65;14.23;;;;;;;-2.90;74.34;101181.25;1771093;79;21089;-67
2020/12/23 00:51:20;;;;;;;26.12;16.97;;;;;;;-2.90;74.38;101181.25;1798993;79;21476;-67
2020/12/23 00:53:49;;;;;;;26.07;15.83;;;;;;;-2.90;74.43;101175.23;1798944;79;21128;-67
2020/12/23 00:56:19;;;;;;;24.77;16.20;;;;;;;-2.91;74.58;101178.25;1798955;79;21089;-67
2020/12/23 00:58:47;;;;;;;28.75;17.77;;;;;;;-2.91;74.62;101184.72;1768111;79;24297;-67
2020/12/23 01:01:15;;;;;;;26.27;16.48;;;;;;;-2.91;74.71;101180.84;1798870;79;21077;-67
2020/12/23 01:03:45;;;;;;;25.45;14.23;;;;;;;-2.91;74.84;101173.52;1796972;79;21287;-66
2020/12/23 01:06:14;;;;;;;26.23;16.90;;;;;;;-2.92;74.97;101171.38;1789372;80;21073;-67
2020/12/23 01:08:43;;;;;;;26.27;16.95;;;;;;;-2.91;75.05;101174.81;1790088;80;21057;-69
2020/12/23 01:11:11;;;;;;;23.83;14.60;;;;;;;-2.90;75.13;101173.94;1790038;80;24206;-68
2020/12/23 01:13:39;;;;;;;22.98;13.65;;;;;;;-2.92;75.24;101162.33;1789891;80;21153;-66
2020/12/23 01:16:08;;;;;;;24.95;14.98;;;;;;;-2.91;75.37;101165.33;1789979;80;21100;-66
2020/12/23 01:18:35;;;;;;;29.37;18.07;;;;;;;-2.91;75.40;101159.30;1789917;80;21599;-67
2020/12/23 01:21:03;;;;;;;31.35;19.17;;;;;;;-2.90;75.46;101152.82;1789736;80;21073;-67
2020/12/23 01:23:30;;;;;;;24.10;15.28;;;;;;;-2.89;75.50;101151.97;1757101;81;21532;-67
2020/12/23 01:25:58;;;;;;;26.52;16.57;;;;;;;-2.89;75.54;101149.39;1757049;81;21160;-67
2020/12/23 01:28:26;;;;;;;24.75;14.83;;;;;;;-2.89;75.52;101144.66;1785386;80;21066;-67
2020/12/23 01:30:53;;;;;;;23.00;14.33;;;;;;;-2.90;75.55;101139.89;1772685;80;21425;-68
2020/12/23 01:33:21;;;;;;;29.15;16.07;;;;;;;-2.90;75.57;101132.14;1764698;81;21472;-66
2020/12/23 01:35:48;;;;;;;28.45;15.68;;;;;;;-2.89;75.61;101129.15;1745405;82;21913;-66
2020/12/23 01:38:16;;;;;;;27.70;16.97;;;;;;;-2.88;75.62;101132.16;1769922;80;21120;-68
2020/12/23 01:40:43;;;;;;;31.25;18.25;;;;;;;-2.89;75.61;101122.69;1789993;80;21443;-67
2020/12/23 01:43:11;;;;;;;27.20;17.45;;;;;;;-2.89;75.62;101130.00;1771303;80;21105;-67
2020/12/23 01:45:39;;;;;;;30.27;18.40;;;;;;;-2.89;75.66;101127.42;1774524;80;21047;-67
2020/12/23 01:48:17;;;;;;;28.50;17.35;;;;;;;-2.86;75.73;101115.33;1774501;80;21897;-67
2020/12/23 01:50:45;;;;;;;35.17;22.13;;;;;;;-2.85;75.80;101118.33;1774435;80;21221;-67
2020/12/23 01:53:14;;;;;;;30.37;19.15;;;;;;;-2.85;75.79;101112.72;1774463;80;21114;-67
2020/12/23 01:55:45;;;;;;;27.42;16.37;;;;;;;-2.85;75.80;101106.69;1771688;80;21086;-67
2020/12/23 01:58:14;;;;;;;42.98;26.97;;;;;;;-2.85;75.87;101114.45;1758874;81;21366;-67
2020/12/23 02:00:42;;;;;;;42.70;26.40;;;;;;;-2.86;75.90;101104.98;1774495;80;21896;-67
2020/12/23 02:03:12;;;;;;;35.33;21.90;;;;;;;-2.84;75.98;101110.98;1774417;80;21126;-67
2020/12/23 02:05:41;;;;;;;47.48;31.40;;;;;;;-2.85;76.01;101095.91;1776812;80;21082;-66
2020/12/23 02:08:09;;;;;;;34.90;21.75;;;;;;;-2.83;76.00;101098.03;1764394;81;21129;-66
2020/12/23 02:10:39;;;;;;;36.48;21.35;;;;;;;-2.80;75.99;101099.72;1777308;80;21107;-66
2020/12/23 02:13:06;;;;;;;33.63;21.42;;;;;;;-2.81;76.01;101091.11;1754226;80;23122;-66
2020/12/23 02:15:34;;;;;;;32.23;18.73;;;;;;;-2.82;76.03;101089.84;1795830;80;21079;-66
2020/12/23 02:18:01;;;;;;;42.17;24.45;;;;;;;-2.81;76.08;101085.08;1796033;80;21472;-66
2020/12/23 02:20:30;;;;;;;39.98;23.80;;;;;;;-2.82;76.12;101086.81;1762764;81;21061;-66
2020/12/23 02:22:58;;;;;;;40.10;23.65;;;;;;;-2.82;76.08;101080.79;1795807;80;21118;-66
2020/12/23 02:25:26;;;;;;;38.17;23.65;;;;;;;-2.81;76.11;101079.91;1796242;79;22116;-66
2020/12/23 02:27:54;;;;;;;33.78;18.87;;;;;;;-2.80;76.13;101077.73;1796202;79;21070;-69
2020/12/23 02:30:21;;;;;;;34.15;19.70;;;;;;;-2.79;76.16;101069.98;1795859;79;21708;-67
2020/12/23 02:32:49;;;;;;;29.65;18.50;;;;;;;-2.77;76.16;101071.26;1762952;81;21231;-67
2020/12/23 02:35:16;;;;;;;40.15;20.82;;;;;;;-2.76;76.14;101067.80;1796072;80;21530;-67
2020/12/23 02:37:44;;;;;;;49.15;24.25;;;;;;;-2.75;76.11;101065.62;1796024;80;22264;-67
2020/12/23 02:40:12;;;;;;;34.08;17.50;;;;;;;-2.76;76.07;101068.64;1795874;80;22518;-67
2020/12/23 02:42:42;;;;;;;30.72;18.37;;;;;;;-2.76;76.02;101071.23;1762824;81;21097;-67
2020/12/23 02:45:09;;;;;;;27.15;15.68;;;;;;;-2.76;76.04;101065.20;1809815;78;21061;-67
2020/12/23 02:47:37;;;;;;;20.60;12.03;;;;;;;-2.75;76.09;101065.62;1802959;78;21063;-67
2020/12/23 02:50:05;;;;;;;24.23;14.25;;;;;;;-2.77;76.07;101066.09;1796264;79;22032;-67
2020/12/23 02:52:33;;;;;;;25.82;15.20;;;;;;;-2.78;76.03;101069.55;1769801;79;21494;-67
2020/12/23 02:55:01;;;;;;;22.48;13.22;;;;;;;-2.78;76.03;101068.26;1796240;79;21067;-67
2020/12/23 02:57:29;;;;;;;21.75;13.90;;;;;;;-2.78;76.10;101064.38;1796184;79;21086;-67
2020/12/23 02:59:57;;;;;;;20.02;11.33;;;;;;;-2.77;76.15;101070.81;1796251;79;21099;-67
2020/12/23 03:02:25;;;;;;;18.35;11.05;;;;;;;-2.76;76.25;101075.55;1796235;79;21943;-67
2020/12/23 03:04:54;;;;;;;16.48;10.10;;;;;;;;;;1783821;79;21083;-67
2020/12/23 03:07:21;;;;;;;15.85;9.65;;;;;;;-2.80;76.38;101066.95;1764792;81;21095;-67
2020/12/23 03:09:49;;;;;;;18.50;9.85;;;;;;;-2.82;76.52;101062.69;1764751;81;21485;-67
2020/12/23 03:12:17;;;;;;;18.05;10.78;;;;;;;-2.85;76.58;101053.26;1764788;81;21109;-67
2020/12/23 03:14:44;;;;;;;16.60;10.63;;;;;;;-2.84;76.69;101047.65;1764493;81;24277;-67
2020/12/23 03:17:11;;;;;;;19.60;11.70;;;;;;;-2.83;76.75;101050.20;1764461;81;21764;-67
2020/12/23 03:19:41;;;;;;;18.87;12.03;;;;;;;-2.81;76.81;101049.74;1764502;80;21080;-67
2020/12/23 03:22:09;;;;;;;18.77;11.73;;;;;;;-2.80;76.83;101051.89;1764217;81;21147;-67
2020/12/23 03:24:36;;;;;;;19.55;12.05;;;;;;;-2.78;76.81;101054.04;1736559;80;21147;-67
2020/12/23 03:27:04;;;;;;;14.33;8.65;;;;;;;-2.78;76.83;101054.04;1764497;80;22061;-67
2020/12/23 03:29:31;;;;;;;16.77;10.43;;;;;;;-2.76;76.81;101050.98;1764475;80;21060;-67
2020/12/23 03:31:59;;;;;;;16.23;10.35;;;;;;;-2.76;76.78;101044.08;1764459;81;21104;-69
2020/12/23 03:34:27;;;;;;;16.32;9.88;;;;;;;-2.75;76.86;101043.20;1764449;80;21128;-67
2020/12/23 03:36:55;;;;;;;16.15;10.90;;;;;;;-2.72;76.86;101052.20;1764453;81;21591;-67
2020/12/23 03:39:23;;;;;;;14.47;9.75;;;;;;;-2.70;76.87;101051.77;1764375;81;22132;-66
2020/12/23 03:41:51;;;;;;;20.10;10.58;;;;;;;-2.68;76.82;101036.23;1764456;81;21080;-67
2020/12/23 03:44:18;;;;;;;17.90;12.73;;;;;;;-2.68;76.76;101040.10;1756126;80;21543;-66
2020/12/23 03:46:46;;;;;;;16.50;11.68;;;;;;;-2.69;76.71;101033.23;1739061;81;21186;-67
2020/12/23 03:49:13;;;;;;;17.92;11.20;;;;;;;-2.69;76.58;101030.64;1746335;81;21049;-66
2020/12/23 03:51:41;;;;;;;14.47;10.53;;;;;;;-2.67;76.48;101037.93;1734416;81;22008;-68
2020/12/23 03:54:09;;;;;;;19.60;11.45;;;;;;;-2.67;76.40;101035.34;1757406;80;21188;-67
2020/12/23 03:56:37;;;;;;;16.50;11.00;;;;;;;-2.66;76.34;101036.61;1764145;80;21116;-67
2020/12/23 03:59:05;;;;;;;15.53;10.10;;;;;;;-2.66;76.26;101035.31;1764440;81;21111;-67
2020/12/23 04:01:33;;;;;;;17.10;10.15;;;;;;;-2.65;76.15;101027.97;1764217;81;21072;-67
2020/12/23 04:04:01;;;;;;;14.45;9.73;;;;;;;-2.64;76.14;101031.41;1741102;81;22169;-67
2020/12/23 04:06:30;;;;;;;16.97;10.60;;;;;;;-2.62;76.17;101032.23;1745845;81;21105;-67
2020/12/23 04:08:58;;;;;;;16.15;10.03;;;;;;;-2.63;76.12;101026.21;1789283;80;20984;-67
2020/12/23 04:11:26;;;;;;;15.53;11.10;;;;;;;-2.63;76.09;101025.36;1790009;80;21134;-67
2020/12/23 04:13:55;;;;;;;20.85;13.60;;;;;;;-2.65;76.07;101018.07;1766981;80;21147;-68
2020/12/23 04:16:23;;;;;;;16.77;10.68;;;;;;;-2.65;76.12;101013.75;1737695;81;21961;-67
2020/12/23 04:18:51;;;;;;;17.30;11.10;;;;;;;-2.64;76.13;101009.43;1765954;80;21107;-67
2020/12/23 04:21:20;;;;;;;18.95;11.88;;;;;;;-2.64;76.08;100999.94;1770968;81;20898;-67
2020/12/23 04:23:47;;;;;;;15.08;9.58;;;;;;;-2.65;76.11;100998.23;1766944;81;21563;-67
2020/12/23 04:26:15;;;;;;;13.75;10.05;;;;;;;-2.63;76.09;101003.37;1764343;81;21194;-67
2020/12/23 04:28:43;;;;;;;16.50;10.25;;;;;;;-2.64;76.05;100999.09;1770920;80;22093;-68
2020/12/23 04:31:11;;;;;;;18.12;12.05;;;;;;;-2.65;76.15;100993.06;1770895;80;21080;-68
2020/12/23 04:33:40;;;;;;;17.23;11.55;;;;;;;-2.64;76.16;100992.63;1770028;80;21131;-68
2020/12/23 04:36:09;;;;;;;18.65;13.15;;;;;;;-2.65;76.26;100990.48;1769322;80;21157;-68
2020/12/23 04:38:37;;;;;;;15.72;11.22;;;;;;;-2.64;76.29;100994.77;1770986;80;21578;-68
2020/12/23 04:41:05;;;;;;;14.20;9.98;;;;;;;-2.62;76.27;100990.86;1766788;81;21899;-68
2020/12/23 04:43:33;;;;;;;16.95;11.30;;;;;;;-2.60;76.25;100995.59;1765304;81;21356;-68
2020/12/23 04:46:02;;;;;;;14.50;9.85;;;;;;;-2.61;76.23;100988.28;1771446;80;21094;-68
2020/12/23 04:48:32;;;;;;;15.38;10.88;;;;;;;-2.61;76.25;100991.27;1769259;80;21040;-67
2020/12/23 04:51:00;;;;;;;16.17;9.93;;;;;;;-2.61;76.27;100992.16;1738941;81;20950;-68
2020/12/23 04:53:27;;;;;;;14.33;10.35;;;;;;;-2.61;76.31;100992.16;1770661;81;24298;-69
2020/12/23 04:55:57;;;;;;;14.35;10.10;;;;;;;-2.61;76.32;100996.45;1741056;81;21139;-70
2020/12/23 04:58:25;;;;;;;15.18;9.85;;;;;;;-2.62;76.35;100994.30;1764667;81;21179;-69
2020/12/23 05:00:54;;;;;;;15.32;10.63;;;;;;;-2.61;76.36;100997.33;1721712;81;21095;-68
2020/12/23 05:03:21;;;;;;;14.65;9.93;;;;;;;-2.62;76.39;101008.52;1765746;80;20929;-70
2020/12/23 05:05:49;;;;;;;15.68;10.88;;;;;;;-2.62;76.42;101005.94;1770692;81;23234;-67
2020/12/23 05:08:17;;;;;;;19.30;11.83;;;;;;;-2.62;76.47;101015.42;1770730;81;21123;-69
2020/12/23 05:10:45;;;;;;;18.40;11.78;;;;;;;-2.62;76.44;101010.25;1770912;80;21427;-65
2020/12/23 05:13:14;;;;;;;16.15;10.43;;;;;;;-2.63;76.46;101010.70;1770672;81;21131;-67
2020/12/23 05:15:42;;;;;;;13.98;9.48;;;;;;;-2.61;76.38;101018.42;1740912;81;21075;-68
2020/12/23 05:18:09;;;;;;;18.27;10.95;;;;;;;-2.63;76.34;101013.72;1762114;81;22075;-67
2020/12/23 05:20:37;;;;;;;16.55;9.58;;;;;;;-2.62;76.33;101012.84;1767500;80;21136;-69
2020/12/23 05:23:05;;;;;;;18.98;11.85;;;;;;;-2.63;76.29;101008.11;1720178;82;21175;-67
2020/12/23 05:25:32;;;;;;;19.05;12.03;;;;;;;-2.62;76.23;101003.80;1717166;81;21071;-68
2020/12/23 05:28:01;;;;;;;31.07;19.70;;;;;;;-2.62;76.24;100995.59;1740945;81;21083;-68
2020/12/23 05:30:29;;;;;;;21.70;13.93;;;;;;;-2.62;76.24;100990.42;1766757;81;22974;-67
2020/12/23 05:32:56;;;;;;;33.67;21.35;;;;;;;-2.59;76.33;100994.72;1740701;81;21159;-66
2020/12/23 05:35:24;;;;;;;39.25;22.32;;;;;;;-2.58;76.37;100992.54;1769021;81;21071;-66
2020/12/23 05:37:52;;;;;;;36.10;22.25;;;;;;;-2.57;76.41;100987.78;1773587;80;21098;-66
2020/12/23 05:40:19;;;;;;;30.25;19.85;;;;;;;-2.56;76.41;100991.22;1769680;80;21783;-67
2020/12/23 05:42:48;;;;;;;38.50;23.85;;;;;;;-2.55;76.40;100995.06;1770935;81;21893;-65
2020/12/23 05:45:16;;;;;;;53.95;31.00;;;;;;;-2.54;76.34;100995.92;1716917;81;21139;-71
2020/12/23 05:47:44;;;;;;;65.70;39.48;;;;;;;-2.55;76.27;101002.83;1767872;81;21057;-66
2020/12/23 05:50:12;;;;;;;29.30;20.12;;;;;;;-2.55;76.22;101001.53;1770889;81;21088;-68
2020/12/23 05:52:39;;;;;;;30.32;19.98;;;;;;;-2.55;76.15;101008.00;1739719;81;21376;-68
2020/12/23 05:55:15;;;;;;;67.32;45.38;;;;;;;-2.54;76.16;101009.70;1773370;80;21906;-68
2020/12/23 05:57:44;;;;;;;54.95;42.23;;;;;;;-2.53;76.13;101010.55;1768129;80;21085;-68
2020/12/23 06:00:12;;;;;;;31.70;23.80;;;;;;;-2.53;76.10;101007.53;1768705;80;21068;-68
2020/12/23 06:03:00;;;;;;;24.65;17.27;;;;;;;-2.51;76.13;101007.09;1769831;81;21080;-67
2020/12/23 06:05:29;;;;;;;22.67;15.38;;;;;;;-2.48;76.10;100995.84;1770442;80;21170;-68
2020/12/23 06:08:00;;;;;;;31.15;18.32;;;;;;;-2.48;76.11;100997.13;1770610;81;21908;-68
2020/12/23 06:10:27;;;;;;;38.63;22.60;;;;;;;-2.46;76.06;100992.78;1770488;81;21211;-67
2020/12/23 06:12:56;;;;;;;32.48;19.60;;;;;;;-2.45;76.03;100996.63;1742541;80;21189;-65
2020/12/23 06:15:29;;;;;;;32.08;21.20;;;;;;;-2.44;76.00;100989.28;1769816;80;21052;-67
2020/12/23 06:17:58;;;;;;;21.52;14.47;;;;;;;-2.43;75.94;100993.57;1770411;81;21463;-69
2020/12/23 06:20:27;;;;;;;19.17;13.72;;;;;;;-2.42;75.89;100990.10;1769718;81;22126;-65
2020/12/23 06:22:55;;;;;;;23.45;16.35;;;;;;;-2.40;75.81;100989.66;1714431;81;21147;-65
2020/12/23 06:25:23;;;;;;;32.67;22.17;;;;;;;-2.40;75.71;100989.66;1770729;81;21080;-66
2020/12/23 06:27:53;;;;;;;29.25;19.90;;;;;;;-2.37;75.67;100987.02;1739776;81;21136;-66
2020/12/23 06:30:21;;;;;;;33.20;20.15;;;;;;;-2.35;75.60;100985.25;1770199;81;21139;-69
2020/12/23 06:32:50;;;;;;;29.65;19.20;;;;;;;-2.34;75.48;100981.78;1768752;81;21799;-66
2020/12/23 06:35:22;;;;;;;33.30;20.20;;;;;;;-2.29;75.49;100986.04;1740813;81;21120;-66
2020/12/23 06:37:49;;;;;;;24.67;16.85;;;;;;;-2.26;75.44;100984.69;1732705;81;21083;-67
2020/12/23 06:40:18;;;;;;;33.25;21.20;;;;;;;-2.22;75.28;100996.67;1764706;81;21202;-64
2020/12/23 06:42:47;;;;;;;29.98;20.15;;;;;;;-2.22;75.23;100992.39;1765336;81;21590;-65
2020/12/23 06:45:15;;;;;;;44.18;28.05;;;;;;;-2.21;75.16;100994.53;1769608;80;21895;-68
2020/12/23 06:47:43;;;;;;;42.13;26.75;;;;;;;-2.20;75.14;100997.09;1769617;81;21075;-65
2020/12/23 06:50:30;;;;;;;44.13;27.17;;;;;;;-2.17;75.07;101002.20;1740821;81;21092;-65
2020/12/23 06:52:58;;;;;;;47.25;30.35;;;;;;;-2.15;75.06;101003.47;1770806;80;21112;-65
2020/12/23 06:55:45;;;;;;;48.80;30.00;;;;;;;-2.13;74.93;101009.46;1740835;80;21506;-65
2020/12/23 06:58:37;;;;;;;31.37;20.90;;;;;;;-2.13;74.89;101008.17;1765177;81;22156;-65
2020/12/23 07:01:19;;;;;;;32.28;21.25;;;;;;;-2.11;74.82;101005.14;1771120;80;21198;-64
2020/12/23 07:03:48;;;;;;;37.70;23.83;;;;;;;-2.15;74.65;100996.55;1774333;80;21529;-64
2020/12/23 07:06:32;;;;;;;32.50;20.55;;;;;;;-2.16;74.72;101005.20;1774188;80;21419;-64
2020/12/23 07:09:04;;;;;;;22.52;15.95;;;;;;;-2.15;74.64;100999.14;1774359;80;21367;-63
2020/12/23 07:11:37;;;;;;;35.20;23.05;;;;;;;-2.14;74.67;100999.55;1774434;80;23031;-63
2020/12/23 07:14:05;;;;;;;31.60;18.50;;;;;;;-2.13;74.70;101001.25;1774390;80;21146;-63
2020/12/23 07:16:40;;;;;;;34.88;23.62;;;;;;;-2.11;74.72;100996.08;1774322;80;21108;-63
2020/12/23 07:19:08;;;;;;;36.77;25.75;;;;;;;-2.11;74.61;100992.20;1774143;80;21612;-62
2020/12/23 07:21:36;;;;;;;33.10;21.70;;;;;;;-2.10;74.67;100990.88;1722156;80;21530;-63
2020/12/23 07:24:05;;;;;;;38.67;26.10;;;;;;;-2.06;74.68;100995.09;1746151;80;22099;-63
2020/12/23 07:26:37;;;;;;;28.35;18.75;;;;;;;-2.03;74.63;100996.36;1774254;80;21181;-63
2020/12/23 07:29:09;;;;;;;32.65;21.10;;;;;;;-2.00;74.57;100996.73;1774337;80;21162;-62
2020/12/23 07:31:40;;;;;;;24.70;16.93;;;;;;;-2.00;74.44;100997.19;1774262;80;21150;-64
2020/12/23 07:34:08;;;;;;;22.30;14.45;;;;;;;-2.02;74.36;100997.22;1770732;80;21131;-64
2020/12/23 07:36:36;;;;;;;28.70;19.77;;;;;;;-2.01;74.40;100995.03;1741197;81;22032;-65
2020/12/23 07:39:04;;;;;;;23.73;16.25;;;;;;;-2.02;74.37;100994.62;1770991;81;21226;-63
2020/12/23 07:41:32;;;;;;;34.58;20.60;;;;;;;-2.02;74.44;100983.83;1769974;80;21080;-64
2020/12/23 07:44:00;;;;;;;27.98;18.37;;;;;;;-1.99;74.32;100985.95;1765802;80;21521;-64
2020/12/23 07:46:27;;;;;;;37.90;25.23;;;;;;;-2.02;74.25;100986.42;1753449;81;21410;-63
2020/12/23 07:48:55;;;;;;;24.23;17.20;;;;;;;-2.04;74.25;100979.54;1758818;81;22129;-64
2020/12/23 07:51:23;;;;;;;32.48;21.68;;;;;;;-2.06;74.27;100975.69;1758762;80;21065;-64
2020/12/23 07:53:50;;;;;;;29.82;18.70;;;;;;;-2.04;74.37;100979.09;1755761;80;21055;-64
2020/12/23 07:56:18;;;;;;;32.48;21.75;;;;;;;-2.01;74.44;100974.33;1790024;80;21122;-64
2020/12/23 07:58:46;;;;;;;36.55;23.57;;;;;;;-1.99;74.44;100960.06;1790088;80;21121;-63
2020/12/23 08:01:13;;;;;;;29.35;19.85;;;;;;;-1.98;74.44;100958.73;1790034;80;21482;-63
2020/12/23 08:03:41;;;;;;;35.60;22.30;;;;;;;-1.96;74.34;100949.19;1789998;80;21093;-63
2020/12/23 08:06:12;;;;;;;30.95;20.55;;;;;;;-1.92;74.39;100943.53;1789941;80;21230;-62
2020/12/23 08:08:41;;;;;;;29.37;18.82;;;;;;;-1.88;74.37;100945.17;1789833;79;21137;-61
2020/12/23 08:11:12;;;;;;;26.23;17.70;;;;;;;-1.87;74.27;100939.95;1757096;81;21074;-62
2020/12/23 08:13:41;;;;;;;28.75;17.80;;;;;;;-1.83;74.21;100939.48;1790042;80;22116;-63
2020/12/23 08:16:15;;;;;;;26.68;17.67;;;;;;;-1.83;74.14;100928.67;1757213;81;21114;-62
2020/12/23 08:18:44;;;;;;;25.15;16.80;;;;;;;-1.81;74.09;100932.08;1790303;80;21076;-66
2020/12/23 08:21:15;;;;;;;28.42;19.35;;;;;;;-1.78;74.07;100929.42;1757183;81;21465;-64
2020/12/23 08:23:42;;;;;;;25.52;17.00;;;;;;;-1.74;74.06;100923.31;1790080;80;21071;-64
2020/12/23 08:26:11;;;;;;;24.87;15.88;;;;;;;-1.71;74.01;100913.33;1790049;80;22757;-64
2020/12/23 08:28:43;;;;;;;21.82;14.25;;;;;;;-1.67;74.01;100908.48;1789854;80;21093;-64
2020/12/23 08:31:18;;;;;;;20.97;15.90;;;;;;;-1.63;73.82;100906.27;1790060;80;21409;-64
2020/12/23 08:33:46;;;;;;;23.07;15.45;;;;;;;-1.62;73.78;100917.03;1750445;80;21162;-64
2020/12/23 08:36:15;;;;;;;24.05;16.32;;;;;;;-1.61;73.71;100903.19;1765198;80;21187;-64
2020/12/23 08:38:43;;;;;;;25.85;15.80;;;;;;;-1.60;73.64;100901.45;1790074;80;22406;-65
2020/12/23 08:41:20;;;;;;;20.67;13.90;;;;;;;-1.59;73.48;100899.27;1789954;80;21089;-63
2020/12/23 08:43:49;;;;;;;24.82;15.13;;;;;;;-1.59;73.50;100892.34;1789757;80;21079;-64
2020/12/23 08:46:24;;;;;;;27.13;17.73;;;;;;;-1.57;73.46;100884.54;1757194;81;21132;-63
2020/12/23 08:48:53;;;;;;;29.25;18.27;;;;;;;-1.58;73.46;100884.98;1757113;81;21069;-63
2020/12/23 08:51:25;;;;;;;26.48;16.27;;;;;;;-1.57;73.44;100879.36;1757272;81;22968;-63
2020/12/23 08:53:54;;;;;;;34.18;20.95;;;;;;;-1.55;73.41;100871.11;1756878;81;21101;-63
2020/12/23 08:56:31;;;;;;;37.13;21.68;;;;;;;-1.56;73.31;100868.11;1757282;81;21501;-63
2020/12/23 08:59:04;;;;;;;38.73;19.70;;;;;;;-1.55;73.39;100862.89;1789995;80;21115;-63
2020/12/23 09:01:33;;;;;;;32.58;19.12;;;;;;;-1.52;73.41;100860.70;1790318;80;21351;-64
2020/12/23 09:04:04;;;;;;;24.35;15.72;;;;;;;-1.52;73.31;100852.92;1790088;80;22767;-63
2020/12/23 09:06:44;;;;;;;30.03;19.60;;;;;;;-1.50;73.40;100849.41;1757281;81;21208;-63
2020/12/23 09:09:22;;;;;;;30.90;17.60;;;;;;;-1.49;73.27;100844.63;1708270;83;21347;-63
2020/12/23 09:11:53;;;;;;;31.75;19.42;;;;;;;-1.47;73.28;100832.48;1740335;82;21093;-65
2020/12/23 09:14:29;;;;;;;29.85;18.85;;;;;;;-1.42;73.24;100831.11;1740414;82;21493;-64
2020/12/23 09:17:21;;;;;;;30.08;18.62;;;;;;;-1.36;73.34;100827.50;1740526;82;21682;-65
2020/12/23 09:20:00;;;;;;;29.82;20.10;;;;;;;-1.30;73.26;100828.22;1713942;82;21136;-63
2020/12/23 09:22:41;;;;;;;22.67;14.63;;;;;;;-1.24;73.29;100821.61;1740419;82;21108;-63
2020/12/23 09:25:26;;;;;;;25.57;16.20;;;;;;;-1.17;73.21;100814.52;1740295;82;21160;-63
2020/12/23 09:27:58;;;;;;;36.20;22.00;;;;;;;-1.14;73.06;100811.02;1740508;82;21362;-62
2020/12/23 09:30:40;;;;;;;32.40;19.45;;;;;;;-1.14;72.89;100808.44;1738807;82;22294;-64
2020/12/23 09:33:16;;;;;;;22.65;15.90;;;;;;;-1.13;72.92;100810.98;1740333;82;21536;-63
2020/12/23 09:35:46;;;;;;;26.80;18.90;;;;;;;-1.11;72.64;100813.53;1740196;81;21121;-63
2020/12/23 09:38:24;;;;;;;27.80;17.60;;;;;;;-1.10;72.70;100813.48;1740349;82;21102;-63
2020/12/23 09:40:57;;;;;;;26.40;16.60;;;;;;;-1.07;72.67;100806.92;1735953;82;21064;-63
2020/12/23 09:43:27;;;;;;;21.73;14.83;;;;;;;-1.03;72.51;100801.23;1740638;82;22764;-63
2020/12/23 09:45:57;;;;;;;22.42;15.95;;;;;;;-1.02;72.41;100804.23;1740269;82;21325;-63
2020/12/23 09:48:27;;;;;;;20.60;13.55;;;;;;;-1.01;72.28;100799.45;1740401;82;21110;-63
2020/12/23 09:50:55;;;;;;;19.95;13.50;;;;;;;-1.00;72.37;100801.16;1740390;82;21101;-64
2020/12/23 09:53:24;;;;;;;30.95;17.95;;;;;;;-1.00;72.22;100796.81;1740408;82;21085;-63
2020/12/23 09:55:54;;;;;;;20.70;15.10;;;;;;;-0.98;72.32;100792.44;1740365;82;21097;-62
2020/12/23 09:58:22;;;;;;;23.67;15.15;;;;;;;-0.89;72.46;100786.16;1740329;82;22576;-62
2020/12/23 10:00:51;;;;;;;19.67;13.70;;;;;;;-0.81;72.20;100784.68;1740355;82;21136;-62
2020/12/23 10:03:19;;;;;;;22.25;14.68;;;;;;;-0.80;71.99;100792.41;1740349;82;21144;-62
2020/12/23 10:05:48;;;;;;;16.97;11.08;;;;;;;-0.80;72.06;100788.52;1740328;82;21132;-62
2020/12/23 10:08:16;;;;;;;21.25;14.70;;;;;;;-0.77;72.01;100800.55;1746596;81;22292;-62
2020/12/23 10:10:44;;;;;;;19.17;12.88;;;;;;;-0.76;71.84;100808.32;1771293;81;21606;-62
2020/12/23 10:13:12;;;;;;;23.02;14.35;;;;;;;-0.76;71.78;100797.95;1771213;80;21169;-62
2020/12/23 10:15:40;;;;;;;19.98;13.98;;;;;;;-0.75;71.81;100788.42;1771232;81;22576;-62
2020/12/23 10:18:08;;;;;;;23.38;14.70;;;;;;;-0.73;71.70;100787.48;1771219;81;21138;-62
2020/12/23 10:20:38;;;;;;;19.90;14.33;;;;;;;-0.78;71.57;100788.03;1741847;81;22801;-62
2020/12/23 10:23:06;;;;;;;18.05;12.70;;;;;;;-0.77;71.69;100790.17;1771135;81;21134;-63
2020/12/23 10:25:34;;;;;;;26.95;15.18;;;;;;;-0.77;71.44;100791.48;1770825;81;21059;-61
2020/12/23 10:28:02;;;;;;;20.57;13.38;;;;;;;-0.80;71.45;100783.34;1771180;81;21066;-62
2020/12/23 10:30:30;;;;;;;19.77;12.70;;;;;;;-0.80;71.63;100787.67;1766239;81;21224;-62
2020/12/23 10:33:00;;;;;;;24.57;15.08;;;;;;;-0.78;71.66;100780.70;1768716;81;21891;-62
2020/12/23 10:35:27;;;;;;;21.35;13.30;;;;;;;-0.76;71.56;100777.64;1767006;80;21575;-64
2020/12/23 10:37:55;;;;;;;20.08;12.80;;;;;;;-0.75;71.59;100776.30;1765441;81;21060;-62
2020/12/23 10:40:22;;;;;;;23.05;14.15;;;;;;;-0.75;71.56;100775.45;1765442;81;21535;-62
2020/12/23 10:42:50;;;;;;;23.27;15.72;;;;;;;-0.76;71.51;100772.45;1765384;81;21140;-62
2020/12/23 10:45:17;;;;;;;21.00;14.10;;;;;;;-0.78;71.51;100775.06;1765515;81;24124;-63
2020/12/23 10:47:45;;;;;;;21.07;14.15;;;;;;;-0.80;71.55;100776.00;1765597;81;21076;-63
2020/12/23 10:50:13;;;;;;;21.17;14.05;;;;;;;-0.80;71.61;100768.23;1753758;81;21074;-64
2020/12/23 10:52:40;;;;;;;19.07;12.63;;;;;;;-0.82;71.55;100770.86;1790042;80;21070;-63
2020/12/23 10:55:09;;;;;;;17.12;12.95;;;;;;;-0.81;71.64;100767.82;1790125;80;21514;-64
2020/12/23 10:57:38;;;;;;;23.10;13.83;;;;;;;-0.83;71.68;100765.27;1757267;81;22096;-64
2020/12/23 11:00:06;;;;;;;25.92;16.65;;;;;;;-0.82;71.79;100758.34;1791292;80;21130;-63
2020/12/23 11:02:34;;;;;;;26.48;15.83;;;;;;;-0.81;71.84;100758.30;1793225;80;21347;-64
2020/12/23 11:05:02;;;;;;;19.55;12.73;;;;;;;-0.81;71.81;100749.67;1793068;80;21063;-63
2020/12/23 11:07:30;;;;;;;19.70;12.98;;;;;;;-0.84;71.84;100749.31;1793146;80;21363;-63
2020/12/23 11:10:00;;;;;;;26.30;17.67;;;;;;;-0.84;71.92;100745.42;1792123;79;22067;-62
2020/12/23 11:12:27;;;;;;;30.68;18.23;;;;;;;-0.85;72.00;100745.02;1796203;79;21146;-63
2020/12/23 11:14:54;;;;;;;24.07;16.02;;;;;;;-0.85;72.10;100741.13;1796129;79;21052;-62
2020/12/23 11:17:22;;;;;;;26.07;16.32;;;;;;;-0.84;72.15;100743.28;1796122;79;21071;-62
2020/12/23 11:19:50;;;;;;;32.05;18.32;;;;;;;-0.85;72.20;100735.95;1796226;79;21114;-63